createdAt,value
2024-02-02T00:00:41.955Z,42.72
2024-02-02T00:03:09.604Z,49.63
2024-02-02T00:05:36.934Z,39.50
2024-02-02T00:08:04.960Z,46.90
2024-02-02T00:10:32.366Z,39.65
2024-02-02T00:12:59.920Z,37.63
2024-02-02T00:15:27.473Z,43.13
2024-02-02T00:17:55.018Z,34.22
2024-02-02T00:20:22.450Z,27.83
2024-02-02T00:22:49.870Z,42.58
2024-02-02T00:25:17.459Z,38.92
2024-02-02T00:27:44.828Z,41.20
2024-02-02T00:30:12.581Z,31.40
2024-02-02T00:32:45.759Z,41.50
2024-02-02T00:35:14.532Z,35.08
2024-02-02T00:37:41.942Z,33.60
2024-02-02T00:40:10.519Z,30.52
2024-02-02T00:42:38.439Z,32.55
2024-02-02T00:45:06.404Z,40.22
2024-02-02T00:47:33.822Z,37.33
2024-02-02T00:50:01.650Z,34.33
2024-02-02T00:52:29.580Z,31.73
2024-02-02T00:54:56.860Z,37.08
2024-02-02T00:57:24.640Z,37.78
2024-02-02T00:59:52.152Z,37.58
2024-02-02T01:02:19.880Z,28.52
2024-02-02T01:04:47.431Z,36.22
2024-02-02T01:07:17.210Z,36.83
2024-02-02T01:09:45.997Z,33.40
2024-02-02T01:12:13.515Z,33.90
2024-02-02T01:14:41.284Z,32.72
2024-02-02T01:17:08.594Z,31.90
2024-02-02T01:19:39.033Z,28.38
2024-02-02T01:22:07.166Z,33.70
2024-02-02T01:24:34.740Z,30.05
2024-02-02T01:27:02.118Z,24.83
2024-02-02T01:29:30.595Z,36.50
2024-02-02T01:31:58.013Z,38.33
2024-02-02T01:34:25.669Z,25.27
2024-02-02T01:36:53.387Z,37.75
2024-02-02T01:39:20.940Z,27.48
2024-02-02T01:41:48.393Z,38.88
2024-02-02T01:44:15.899Z,40.60
2024-02-02T01:46:47.924Z,38.70
2024-02-02T01:49:15.541Z,25.52
2024-02-02T01:51:43.100Z,34.80
2024-02-02T01:54:11.007Z,29.83
2024-02-02T01:56:38.884Z,37.35
2024-02-02T01:59:08.958Z,41.97
2024-02-02T02:01:36.448Z,29.70
2024-02-02T02:04:05.151Z,33.13
2024-02-02T02:06:32.740Z,32.58
2024-02-02T02:09:00.415Z,24.67
2024-02-02T02:11:27.972Z,35.03
2024-02-02T02:13:56.094Z,25.60
2024-02-02T02:16:23.500Z,31.08
2024-02-02T02:18:56.142Z,30.20
2024-02-02T02:21:30.592Z,32.92
2024-02-02T02:23:58.195Z,26.63
2024-02-02T02:26:27.316Z,30.65
2024-02-02T02:28:54.735Z,34.70
2024-02-02T02:31:22.242Z,27.45
2024-02-02T02:33:49.814Z,26.02
2024-02-02T02:36:17.730Z,26.35
2024-02-02T02:38:45.643Z,29.67
2024-02-02T02:41:13.100Z,30.65
2024-02-02T02:43:40.632Z,24.02
2024-02-02T02:46:08.530Z,32.22
2024-02-02T02:48:38.222Z,20.63
2024-02-02T02:51:05.954Z,26.03
2024-02-02T02:53:33.388Z,30.45
2024-02-02T02:56:00.712Z,33.28
2024-02-02T02:58:28.070Z,30.25
2024-02-02T03:00:55.710Z,33.75
2024-02-02T03:03:23.509Z,24.25
2024-02-02T03:05:50.950Z,22.77
2024-02-02T03:08:18.348Z,39.28
2024-02-02T03:10:45.679Z,30.65
2024-02-02T03:13:13.157Z,32.65
2024-02-02T03:15:41.609Z,34.83
2024-02-02T03:18:11.224Z,31.40
2024-02-02T03:20:38.602Z,34.30
2024-02-02T03:23:06.185Z,37.67
2024-02-02T03:25:33.547Z,38.45
2024-02-02T03:28:00.912Z,37.38
2024-02-02T03:30:28.653Z,31.63
2024-02-02T03:32:56.496Z,38.30
2024-02-02T03:35:25.449Z,41.75
2024-02-02T03:37:52.810Z,44.42
2024-02-02T03:40:20.119Z,42.13
2024-02-02T03:42:47.613Z,44.15
2024-02-02T03:45:15.632Z,34.95
2024-02-02T03:47:43.023Z,41.30
2024-02-02T03:50:11.009Z,38.00
2024-02-02T03:52:38.539Z,36.17
2024-02-02T03:55:06.345Z,38.47
2024-02-02T03:57:33.809Z,34.10
2024-02-02T04:00:01.237Z,35.67
2024-02-02T04:02:28.643Z,28.90
2024-02-02T04:04:56.108Z,38.88
2024-02-02T04:07:23.576Z,30.73
2024-02-02T04:09:50.955Z,36.92
2024-02-02T04:12:19.057Z,32.13
2024-02-02T04:14:46.405Z,35.25
2024-02-02T04:17:13.839Z,39.75
2024-02-02T04:19:41.604Z,31.48
2024-02-02T04:22:09.139Z,30.10
2024-02-02T04:24:36.665Z,34.70
2024-02-02T04:27:04.408Z,31.20
2024-02-02T04:29:31.830Z,28.90
2024-02-02T04:31:59.265Z,35.13
2024-02-02T04:34:26.660Z,32.58
2024-02-02T04:36:54.319Z,28.02
2024-02-02T04:39:21.719Z,34.55
2024-02-02T04:41:49.109Z,28.98
2024-02-02T04:44:16.560Z,36.58
2024-02-02T04:46:43.977Z,32.15
2024-02-02T04:49:11.716Z,31.77
2024-02-02T04:51:39.174Z,34.70
2024-02-02T04:54:06.682Z,21.65
2024-02-02T04:56:34.117Z,28.00
2024-02-02T04:59:01.486Z,26.15
2024-02-02T05:01:28.856Z,28.73
2024-02-02T05:03:56.338Z,32.25
2024-02-02T05:06:23.849Z,34.83
2024-02-02T05:08:51.410Z,27.35
2024-02-02T05:11:18.826Z,29.40
2024-02-02T05:13:46.126Z,31.92
2024-02-02T05:16:15.691Z,34.35
2024-02-02T05:18:43.889Z,27.67
2024-02-02T05:21:11.385Z,31.15
2024-02-02T05:23:43.775Z,26.15
2024-02-02T05:26:17.151Z,32.65
2024-02-02T05:28:44.810Z,28.20
2024-02-02T05:31:12.165Z,36.70
2024-02-02T05:33:39.675Z,25.40
2024-02-02T05:36:07.540Z,28.20
2024-02-02T05:38:34.933Z,25.30
2024-02-02T05:41:02.474Z,30.02
2024-02-02T05:43:30.028Z,38.72
2024-02-02T05:45:57.427Z,31.65
2024-02-02T05:48:24.948Z,25.67
2024-02-02T05:50:52.415Z,28.52
2024-02-02T05:53:19.851Z,30.23
2024-02-02T05:55:47.729Z,34.05
2024-02-02T05:58:15.516Z,23.83
2024-02-02T06:00:42.980Z,28.50
2024-02-02T06:03:10.605Z,27.92
2024-02-02T06:05:38.278Z,26.48
2024-02-02T06:08:07.920Z,29.75
2024-02-02T06:10:35.454Z,30.30
2024-02-02T06:13:03.025Z,28.60
2024-02-02T06:15:30.956Z,23.42
2024-02-02T06:17:58.886Z,29.27
2024-02-02T06:20:26.603Z,27.05
2024-02-02T06:22:53.966Z,28.38
2024-02-02T06:25:21.315Z,32.33
2024-02-02T06:27:48.670Z,24.85
2024-02-02T06:30:16.101Z,27.67
2024-02-02T06:32:47.321Z,37.80
2024-02-02T06:35:15.123Z,26.27
2024-02-02T06:37:42.724Z,27.65
2024-02-02T06:40:11.566Z,37.08
2024-02-02T06:42:39.326Z,26.58
2024-02-02T06:45:07.374Z,25.13
2024-02-02T06:47:35.000Z,28.73
2024-02-02T06:50:03.411Z,31.05
2024-02-02T06:52:31.085Z,28.35
2024-02-02T06:54:58.857Z,27.95
2024-02-02T06:57:28.098Z,25.10
2024-02-02T06:59:56.674Z,31.23
2024-02-02T07:02:34.061Z,27.83
2024-02-02T07:05:02.783Z,22.50
2024-02-02T07:07:30.733Z,28.45
2024-02-02T07:09:58.229Z,33.30
2024-02-02T07:12:40.933Z,23.80
2024-02-02T07:15:16.130Z,31.67
2024-02-02T07:17:46.023Z,28.20
2024-02-02T07:20:34.581Z,32.53
2024-02-02T07:23:03.056Z,22.85
2024-02-02T07:25:38.248Z,27.20
2024-02-02T07:28:07.763Z,29.17
2024-02-02T07:30:45.046Z,18.88
2024-02-02T07:33:24.649Z,30.00
2024-02-02T07:35:53.932Z,25.80
2024-02-02T07:38:39.950Z,19.55
2024-02-02T07:41:13.371Z,30.63
2024-02-02T07:43:40.952Z,27.48
2024-02-02T07:46:12.285Z,26.63
2024-02-02T07:48:42.295Z,25.98
2024-02-02T07:51:10.402Z,22.85
2024-02-02T07:53:37.891Z,30.15
2024-02-02T07:56:05.927Z,32.60
2024-02-02T07:58:33.303Z,29.10
2024-02-02T08:01:00.917Z,35.60
2024-02-02T08:03:28.385Z,23.20
2024-02-02T08:05:56.365Z,24.23
2024-02-02T08:08:24.107Z,28.48
2024-02-02T08:10:51.684Z,22.42
2024-02-02T08:13:20.221Z,27.33
2024-02-02T08:15:47.755Z,34.10
2024-02-02T08:18:15.256Z,30.67
2024-02-02T08:20:42.831Z,30.75
2024-02-02T08:23:10.238Z,32.85
2024-02-02T08:25:37.749Z,39.33
2024-02-02T08:28:05.550Z,28.75
2024-02-02T08:30:33.004Z,23.88
2024-02-02T08:33:00.700Z,24.95
2024-02-02T08:35:29.670Z,23.85
2024-02-02T08:38:02.483Z,23.77
2024-02-02T08:40:42.513Z,25.63
2024-02-02T08:43:18.218Z,31.75
2024-02-02T08:46:00.753Z,38.10
2024-02-02T08:48:47.786Z,32.75
2024-02-02T08:51:25.570Z,24.13
2024-02-02T08:54:07.718Z,34.10
2024-02-02T08:56:35.277Z,33.90
2024-02-02T08:59:25.877Z,25.55
2024-02-02T09:01:53.214Z,29.23
2024-02-02T09:04:36.136Z,29.27
2024-02-02T09:07:05.203Z,31.13
2024-02-02T09:09:32.857Z,22.83
2024-02-02T09:12:00.472Z,33.40
2024-02-02T09:14:28.869Z,30.73
2024-02-02T09:16:56.381Z,26.52
2024-02-02T09:19:26.947Z,29.05
2024-02-02T09:22:16.931Z,22.65
2024-02-02T09:24:47.628Z,20.50
2024-02-02T09:29:47.986Z,27.67
2024-02-02T09:32:19.213Z,22.60
2024-02-02T09:34:47.730Z,26.95
2024-02-02T09:37:23.615Z,32.92
2024-02-02T09:39:55.874Z,34.13
2024-02-02T09:42:23.174Z,29.67
2024-02-02T09:44:58.257Z,37.65
2024-02-02T09:47:45.570Z,31.58
2024-02-02T09:50:16.221Z,31.17
2024-02-02T09:52:43.705Z,26.40
2024-02-02T09:55:33.823Z,24.75
2024-02-02T09:58:11.357Z,27.08
2024-02-02T10:01:10.147Z,31.38
2024-02-02T10:03:55.898Z,45.15
2024-02-02T10:06:46.406Z,40.55
2024-02-02T10:09:56.048Z,25.65
2024-02-02T10:12:44.547Z,23.88
2024-02-02T10:15:33.387Z,25.45
2024-02-02T10:18:16.319Z,20.05
2024-02-02T10:20:53.938Z,32.90
2024-02-02T10:23:36.616Z,21.23
2024-02-02T10:26:15.976Z,30.23
2024-02-02T10:29:05.978Z,28.08
2024-02-02T10:31:36.455Z,28.13
2024-02-02T10:34:09.930Z,21.58
2024-02-02T10:36:46.608Z,26.13
2024-02-02T10:39:21.777Z,28.40
2024-02-02T10:42:17.208Z,26.35
2024-02-02T10:45:09.092Z,24.55
2024-02-02T10:48:12.524Z,23.75
2024-02-02T10:51:10.536Z,35.00
2024-02-02T10:54:06.916Z,28.75
2024-02-02T10:56:58.448Z,27.17
2024-02-02T10:59:47.090Z,24.95
2024-02-02T11:03:02.235Z,26.75
2024-02-02T11:05:48.268Z,30.63
2024-02-02T11:08:19.704Z,19.50
2024-02-02T11:11:00.195Z,19.73
2024-02-02T11:14:02.685Z,21.08
2024-02-02T11:16:58.532Z,29.75
2024-02-02T11:19:25.867Z,21.50
2024-02-02T11:22:04.628Z,20.35
2024-02-02T11:24:51.640Z,26.38
2024-02-02T11:27:31.234Z,26.30
2024-02-02T11:30:12.002Z,18.00
2024-02-02T11:33:04.655Z,20.65
2024-02-02T11:35:48.429Z,18.40
2024-02-02T11:38:36.583Z,21.58
2024-02-02T11:41:04.902Z,21.80
2024-02-02T11:43:33.114Z,22.50
2024-02-02T11:46:02.167Z,20.75
2024-02-02T11:48:40.433Z,18.88
2024-02-02T11:51:11.851Z,23.55
2024-02-02T11:54:15.578Z,18.05
2024-02-02T11:56:51.382Z,19.65
2024-02-02T11:59:30.833Z,22.83
2024-02-02T12:02:18.537Z,21.70
2024-02-02T12:05:04.660Z,22.27
2024-02-02T12:07:38.574Z,22.65
2024-02-02T12:10:09.505Z,16.67
2024-02-02T12:12:41.942Z,20.60
2024-02-02T12:15:11.184Z,18.00
2024-02-02T12:17:40.020Z,20.63
2024-02-02T12:20:11.263Z,23.40
2024-02-02T12:22:38.884Z,18.00
2024-02-02T12:25:10.950Z,20.38
2024-02-02T12:27:38.763Z,20.23
2024-02-02T12:30:11.158Z,17.45
2024-02-02T12:32:42.838Z,18.02
2024-02-02T12:35:10.760Z,23.35
2024-02-02T12:37:50.352Z,21.23
2024-02-02T12:40:21.701Z,18.92
2024-02-02T12:42:49.749Z,18.58
2024-02-02T12:45:19.186Z,22.27
2024-02-02T12:47:48.324Z,16.67
2024-02-02T12:50:16.892Z,20.10
2024-02-02T12:52:52.465Z,18.38
2024-02-02T12:55:20.160Z,16.48
2024-02-02T12:57:47.898Z,21.60
2024-02-02T13:00:15.995Z,20.60
2024-02-02T13:02:47.752Z,17.17
2024-02-02T13:05:18.711Z,19.88
2024-02-02T13:07:53.046Z,18.50
2024-02-02T13:10:45.426Z,20.40
2024-02-02T13:13:26.856Z,24.58
2024-02-02T13:15:55.022Z,22.52
2024-02-02T13:18:25.267Z,24.58
2024-02-02T13:20:57.553Z,19.38
2024-02-02T13:23:30.385Z,21.25
2024-02-02T13:26:08.027Z,21.83
2024-02-02T13:28:42.497Z,27.58
2024-02-02T13:31:13.866Z,22.20
2024-02-02T13:33:47.366Z,21.83
2024-02-02T13:36:18.539Z,24.45
2024-02-02T13:38:48.357Z,19.65
2024-02-02T13:41:21.427Z,20.33
2024-02-02T13:44:07.444Z,23.90
2024-02-02T13:46:46.057Z,16.55
2024-02-02T13:49:34.654Z,23.38
2024-02-02T13:52:07.338Z,17.85
2024-02-02T13:54:35.065Z,20.38
2024-02-02T13:57:03.142Z,24.63
2024-02-02T13:59:30.796Z,17.08
2024-02-02T14:02:08.419Z,20.88
2024-02-02T14:04:36.088Z,17.08
2024-02-02T14:07:17.037Z,22.20
2024-02-02T14:09:45.024Z,24.77
2024-02-02T14:12:13.329Z,21.38
2024-02-02T14:14:40.824Z,17.38
2024-02-02T14:17:08.324Z,23.95
2024-02-02T14:19:35.974Z,21.13
2024-02-02T14:22:06.196Z,22.38
2024-02-02T14:24:34.365Z,21.17
2024-02-02T14:27:05.903Z,22.20
2024-02-02T14:29:44.623Z,23.30
2024-02-02T14:32:12.626Z,24.98
2024-02-02T14:34:40.373Z,24.35
2024-02-02T14:37:09.930Z,14.18
2024-02-02T14:39:37.725Z,20.30
2024-02-02T14:42:06.831Z,25.48
2024-02-02T14:44:35.278Z,28.38
2024-02-02T14:47:02.834Z,20.55
2024-02-02T14:49:30.868Z,22.00
2024-02-02T14:51:58.467Z,21.38
2024-02-02T14:54:26.913Z,17.60
2024-02-02T14:56:54.492Z,21.98
2024-02-02T14:59:29.496Z,15.23
2024-02-02T15:01:57.642Z,16.13
2024-02-02T15:04:25.464Z,18.20
2024-02-02T15:06:53.173Z,23.38
2024-02-02T15:09:21.218Z,22.98
2024-02-02T15:11:48.623Z,15.00
2024-02-02T15:14:16.414Z,21.25
2024-02-02T15:16:44.167Z,19.33
2024-02-02T15:19:11.866Z,15.73
2024-02-02T15:21:39.396Z,19.42
2024-02-02T15:24:08.046Z,16.67
2024-02-02T15:26:37.915Z,14.82
2024-02-02T15:29:05.810Z,19.30
2024-02-02T15:31:34.028Z,16.85
2024-02-02T15:34:06.318Z,19.02
2024-02-02T15:36:36.924Z,20.80
2024-02-02T15:39:18.972Z,21.38
2024-02-02T15:41:54.458Z,20.55
2024-02-02T15:44:22.387Z,15.50
2024-02-02T15:46:49.912Z,15.05
2024-02-02T15:49:17.544Z,16.40
2024-02-02T15:51:45.257Z,15.60
2024-02-02T15:54:12.926Z,18.27
2024-02-02T15:56:40.817Z,19.98
2024-02-02T15:59:08.748Z,12.00
2024-02-02T16:01:36.597Z,16.48
2024-02-02T16:04:04.790Z,18.83
2024-02-02T16:06:32.543Z,14.50
2024-02-02T16:09:00.299Z,16.50
2024-02-02T16:11:27.853Z,16.73
2024-02-02T16:13:55.377Z,15.27
2024-02-02T16:16:22.695Z,16.20
2024-02-02T16:18:50.206Z,23.58
2024-02-02T16:21:17.928Z,18.45
2024-02-02T16:23:45.350Z,17.63
2024-02-02T16:26:13.735Z,15.23
2024-02-02T16:28:41.105Z,22.60
2024-02-02T16:31:08.657Z,18.70
2024-02-02T16:33:36.576Z,16.15
2024-02-02T16:36:04.508Z,17.98
2024-02-02T16:38:35.990Z,16.45
2024-02-02T16:41:04.110Z,15.63
2024-02-02T16:43:31.872Z,14.40
2024-02-02T16:45:59.223Z,22.20
2024-02-02T16:48:26.724Z,18.13
2024-02-02T16:50:56.222Z,14.35
2024-02-02T16:53:23.868Z,15.93
2024-02-02T16:55:51.778Z,17.00
2024-02-02T16:58:19.587Z,20.98
2024-02-02T17:00:47.057Z,13.82
2024-02-02T17:03:14.835Z,9.90
2024-02-02T17:05:42.369Z,16.65
2024-02-02T17:08:09.869Z,18.10
2024-02-02T17:10:37.645Z,12.95
2024-02-02T17:13:05.203Z,16.10
2024-02-02T17:15:34.898Z,21.48
2024-02-02T17:18:02.475Z,16.98
2024-02-02T17:20:29.947Z,12.38
2024-02-02T17:22:57.796Z,15.18
2024-02-02T17:25:25.165Z,9.10
2024-02-02T17:27:52.785Z,17.38
2024-02-02T17:30:23.004Z,15.43
2024-02-02T17:32:50.687Z,12.95
2024-02-02T17:35:18.702Z,13.27
2024-02-02T17:37:46.349Z,12.70
2024-02-02T17:40:15.237Z,17.33
2024-02-02T17:42:43.521Z,14.52
2024-02-02T17:45:11.400Z,16.50
2024-02-02T17:47:38.987Z,12.82
2024-02-02T17:50:10.045Z,14.50
2024-02-02T17:52:37.521Z,20.27
2024-02-02T17:55:05.459Z,19.63
2024-02-02T17:57:33.159Z,17.05
2024-02-02T18:00:00.848Z,19.73
2024-02-02T18:02:28.365Z,15.57
2024-02-02T18:04:55.707Z,15.30
2024-02-02T18:07:29.991Z,16.42
2024-02-02T18:10:00.747Z,14.18
2024-02-02T18:12:28.389Z,14.25
2024-02-02T18:14:55.952Z,14.10
2024-02-02T18:17:23.336Z,15.85
2024-02-02T18:19:50.892Z,13.90
2024-02-02T18:22:18.695Z,14.65
2024-02-02T18:24:46.467Z,17.13
2024-02-02T18:27:13.867Z,17.88
2024-02-02T18:29:41.337Z,16.88
2024-02-02T18:32:09.111Z,19.85
2024-02-02T18:34:39.712Z,17.63
2024-02-02T18:39:34.463Z,16.00
2024-02-02T18:42:06.551Z,14.07
2024-02-02T18:44:37.517Z,14.30
2024-02-02T18:47:05.295Z,15.55
2024-02-02T18:49:32.964Z,17.35
2024-02-02T18:52:00.320Z,15.73
2024-02-02T18:54:28.350Z,16.70
2024-02-02T18:56:56.199Z,19.45
2024-02-02T18:59:23.578Z,12.88
2024-02-02T19:01:51.213Z,22.77
2024-02-02T19:04:18.651Z,17.42
2024-02-02T19:06:46.171Z,13.48
2024-02-02T19:09:14.221Z,12.43
2024-02-02T19:11:41.675Z,17.63
2024-02-02T19:14:34.617Z,20.65
2024-02-02T19:17:01.987Z,18.50
2024-02-02T19:19:29.537Z,19.15
2024-02-02T19:21:57.502Z,22.20
2024-02-02T19:24:24.900Z,17.05
2024-02-02T19:26:54.644Z,15.20
2024-02-02T19:29:22.399Z,17.27
2024-02-02T19:31:49.734Z,18.50
2024-02-02T19:34:17.511Z,18.80
2024-02-02T19:36:45.091Z,14.38
2024-02-02T19:39:13.399Z,17.13
2024-02-02T19:41:40.879Z,16.45
2024-02-02T19:44:08.366Z,13.93
2024-02-02T19:46:35.759Z,15.57
2024-02-02T19:49:03.796Z,17.83
2024-02-02T19:51:32.061Z,16.70
2024-02-02T19:53:59.661Z,16.85
2024-02-02T19:56:27.192Z,15.80
2024-02-02T19:58:55.425Z,12.70
2024-02-02T20:01:25.856Z,14.82
2024-02-02T20:03:53.976Z,18.25
2024-02-02T20:06:21.813Z,16.20
2024-02-02T20:08:50.148Z,17.75
2024-02-02T20:11:19.365Z,15.55
2024-02-02T20:13:47.785Z,21.30
2024-02-02T20:16:17.750Z,15.35
2024-02-02T20:18:45.554Z,14.93
2024-02-02T20:21:17.551Z,16.42
2024-02-02T20:23:46.674Z,13.18
2024-02-02T20:26:21.274Z,19.60
2024-02-02T20:28:50.889Z,21.08
2024-02-02T20:31:18.791Z,19.05
2024-02-02T20:33:46.583Z,19.70
2024-02-02T20:36:14.645Z,17.52
2024-02-02T20:38:43.784Z,18.10
2024-02-02T20:41:14.991Z,12.30
2024-02-02T20:43:47.300Z,17.17
2024-02-02T20:46:15.061Z,12.88
2024-02-02T20:48:42.573Z,14.57
2024-02-02T20:51:14.117Z,16.20
2024-02-02T20:53:43.451Z,17.90
2024-02-02T20:56:10.971Z,17.00
2024-02-02T20:58:38.316Z,17.60
2024-02-02T21:01:07.107Z,20.23
2024-02-02T21:03:35.524Z,14.77
2024-02-02T21:06:03.660Z,18.02
2024-02-02T21:08:31.190Z,14.30
2024-02-02T21:10:58.754Z,17.45
2024-02-02T21:13:26.903Z,15.15
2024-02-02T21:15:54.679Z,16.77
2024-02-02T21:18:24.251Z,14.38
2024-02-02T21:20:52.497Z,17.48
2024-02-02T21:23:19.983Z,18.52
2024-02-02T21:25:48.345Z,15.90
2024-02-02T21:28:18.781Z,21.65
2024-02-02T21:30:47.856Z,16.42
2024-02-02T21:33:19.935Z,19.60
2024-02-02T21:35:48.751Z,17.25
2024-02-02T21:38:16.364Z,18.23
2024-02-02T21:40:43.769Z,21.95
2024-02-02T21:43:11.183Z,18.77
2024-02-02T21:45:39.988Z,20.05
2024-02-02T21:48:09.110Z,21.75
2024-02-02T21:50:36.671Z,19.75
2024-02-02T21:53:04.276Z,20.60
2024-02-02T21:55:31.845Z,13.90
2024-02-02T21:57:59.428Z,21.33
2024-02-02T22:00:26.877Z,19.50
2024-02-02T22:02:54.331Z,18.42
2024-02-02T22:05:23.683Z,19.13
2024-02-02T22:07:51.293Z,22.67
2024-02-02T22:10:18.890Z,14.30
2024-02-02T22:12:46.414Z,21.63
2024-02-02T22:15:13.991Z,18.55
2024-02-02T22:17:41.420Z,14.98
2024-02-02T22:20:09.681Z,18.40
2024-02-02T22:22:37.202Z,18.42
2024-02-02T22:25:04.860Z,25.40
2024-02-02T22:27:35.183Z,18.33
2024-02-02T22:30:07.521Z,13.40
2024-02-02T22:32:35.173Z,16.88
2024-02-02T22:35:02.709Z,14.60
2024-02-02T22:37:30.380Z,13.73
2024-02-02T22:39:58.088Z,16.67
2024-02-02T22:42:25.655Z,12.88
2024-02-02T22:44:55.301Z,21.30
2024-02-02T22:47:22.680Z,14.57
2024-02-02T22:49:50.226Z,14.32
2024-02-02T22:52:19.163Z,17.02
2024-02-02T22:54:46.818Z,19.58
2024-02-02T22:57:14.421Z,18.60
2024-02-02T22:59:45.350Z,15.05
2024-02-02T23:02:18.093Z,18.17
2024-02-02T23:04:45.549Z,13.80
2024-02-02T23:07:12.971Z,19.48
2024-02-02T23:09:40.335Z,11.85
2024-02-02T23:12:08.157Z,14.20
2024-02-02T23:14:35.592Z,16.70
2024-02-02T23:17:02.993Z,13.00
2024-02-02T23:19:30.699Z,10.35
2024-02-02T23:21:58.247Z,9.80
2024-02-02T23:24:25.867Z,13.32
2024-02-02T23:26:54.631Z,9.45
2024-02-02T23:29:22.108Z,15.80
2024-02-02T23:31:49.672Z,13.93
2024-02-02T23:34:17.446Z,11.80
2024-02-02T23:36:44.975Z,14.40
2024-02-02T23:39:13.488Z,6.88
2024-02-02T23:41:40.848Z,10.63
2024-02-02T23:44:08.222Z,8.43
2024-02-02T23:46:35.572Z,9.38
2024-02-02T23:49:03.485Z,6.10
2024-02-02T23:51:31.102Z,14.95
2024-02-02T23:53:58.706Z,14.68
2024-02-02T23:56:26.032Z,9.07
2024-02-02T23:58:53.641Z,12.18
